createdAt,value
2023-05-05T00:01:43.366Z,4.28
2023-05-05T00:04:11.219Z,4.32
2023-05-05T00:06:38.744Z,4.80
2023-05-05T00:09:06.984Z,4.32
2023-05-05T00:11:34.579Z,4.70
2023-05-05T00:14:02.298Z,4.85
2023-05-05T00:16:29.869Z,4.05
2023-05-05T00:18:57.991Z,4.55
2023-05-05T00:21:27.725Z,4.65
2023-05-05T00:23:55.850Z,4.60
2023-05-05T00:26:23.686Z,5.10
2023-05-05T00:28:53.378Z,4.68
2023-05-05T00:31:21.082Z,5.00
2023-05-05T00:33:48.630Z,4.53
2023-05-05T00:36:16.492Z,4.57
2023-05-05T00:38:44.056Z,4.85
2023-05-05T00:41:11.942Z,4.93
2023-05-05T00:43:39.489Z,4.93
2023-05-05T00:46:15.323Z,5.20
2023-05-05T00:48:42.869Z,4.93
2023-05-05T00:51:10.812Z,4.75
2023-05-05T00:53:40.401Z,5.00
2023-05-05T00:56:08.006Z,5.68
2023-05-05T00:58:36.575Z,5.00
2023-05-05T01:01:04.162Z,4.85
2023-05-05T01:03:31.921Z,5.45
2023-05-05T01:06:05.376Z,5.22
2023-05-05T01:08:52.228Z,5.28
2023-05-05T01:11:27.001Z,5.40
2023-05-05T01:13:58.060Z,5.35
2023-05-05T01:16:30.122Z,5.00
2023-05-05T01:19:01.392Z,5.10
2023-05-05T01:21:29.278Z,4.72
2023-05-05T01:24:12.334Z,5.30
2023-05-05T01:26:42.997Z,4.90
2023-05-05T01:29:10.500Z,5.05
2023-05-05T01:31:54.450Z,5.07
2023-05-05T01:34:26.523Z,5.28
2023-05-05T01:36:57.716Z,5.25
2023-05-05T01:39:27.883Z,5.30
2023-05-05T01:41:58.864Z,5.03
2023-05-05T01:44:28.298Z,5.57
2023-05-05T01:46:56.365Z,5.50
2023-05-05T01:49:24.477Z,4.97
2023-05-05T01:51:52.650Z,5.15
2023-05-05T01:54:21.321Z,5.20
2023-05-05T01:56:49.932Z,5.88
2023-05-05T01:59:18.120Z,4.70
2023-05-05T02:01:47.240Z,5.15
2023-05-05T02:04:15.935Z,5.28
2023-05-05T02:06:44.089Z,4.82
2023-05-05T02:09:12.671Z,5.05
2023-05-05T02:11:40.974Z,4.82
2023-05-05T02:14:09.425Z,5.00
2023-05-05T02:16:37.548Z,5.10
2023-05-05T02:19:06.026Z,5.10
2023-05-05T02:21:34.274Z,5.05
2023-05-05T02:24:01.975Z,5.35
2023-05-05T02:26:30.598Z,4.82
2023-05-05T02:28:58.405Z,5.30
2023-05-05T02:31:27.579Z,5.18
2023-05-05T02:33:56.795Z,5.10
2023-05-05T02:36:27.874Z,5.03
2023-05-05T02:39:01.359Z,5.10
2023-05-05T02:41:33.579Z,4.85
2023-05-05T02:44:05.907Z,5.30
2023-05-05T02:46:35.316Z,5.40
2023-05-05T02:49:03.353Z,5.05
2023-05-05T02:51:30.968Z,5.13
2023-05-05T02:54:01.553Z,4.90
2023-05-05T02:56:35.057Z,4.80
2023-05-05T02:59:28.063Z,4.70
2023-05-05T03:02:08.343Z,5.05
2023-05-05T03:04:40.671Z,5.40
2023-05-05T03:07:15.188Z,5.30
2023-05-05T03:09:52.264Z,4.85
2023-05-05T03:12:22.879Z,5.55
2023-05-05T03:15:00.276Z,5.13
2023-05-05T03:17:31.388Z,4.40
2023-05-05T03:20:02.262Z,5.40
2023-05-05T03:22:36.913Z,5.15
2023-05-05T03:25:06.292Z,5.20
2023-05-05T03:27:34.104Z,5.38
2023-05-05T03:30:01.843Z,5.18
2023-05-05T03:32:30.820Z,5.13
2023-05-05T03:34:58.547Z,5.28
2023-05-05T03:37:31.666Z,4.72
2023-05-05T03:39:59.579Z,5.22
2023-05-05T03:42:27.278Z,5.25
2023-05-05T03:44:55.074Z,5.45
2023-05-05T03:47:24.589Z,5.10
2023-05-05T03:49:52.789Z,5.78
2023-05-05T03:52:20.530Z,5.95
2023-05-05T03:54:48.399Z,5.03
2023-05-05T03:57:16.612Z,5.28
2023-05-05T03:59:44.203Z,5.03
2023-05-05T04:02:11.882Z,4.80
2023-05-05T04:04:39.462Z,5.00
2023-05-05T04:07:07.097Z,5.18
2023-05-05T04:09:34.793Z,5.88
2023-05-05T04:12:02.988Z,5.63
2023-05-05T04:14:30.710Z,5.65
2023-05-05T04:16:58.513Z,5.18
2023-05-05T04:19:26.160Z,6.22
2023-05-05T04:21:53.953Z,5.20
2023-05-05T04:24:24.938Z,5.45
2023-05-05T04:26:54.975Z,5.85
2023-05-05T04:29:22.743Z,5.95
2023-05-05T04:31:50.741Z,5.55
2023-05-05T04:34:18.692Z,5.50
2023-05-05T04:36:46.313Z,13.80
2023-05-05T04:39:14.320Z,7.00
2023-05-05T04:41:42.012Z,5.63
2023-05-05T04:44:10.635Z,5.05
2023-05-05T04:46:38.410Z,5.78
2023-05-05T04:49:06.279Z,5.30
2023-05-05T04:51:34.826Z,5.45
2023-05-05T04:54:02.396Z,5.93
2023-05-05T04:56:32.066Z,5.75
2023-05-05T04:58:59.583Z,5.90
2023-05-05T05:01:27.147Z,5.50
2023-05-05T05:03:54.966Z,5.65
2023-05-05T05:06:22.781Z,5.30
2023-05-05T05:08:50.310Z,5.30
2023-05-05T05:11:17.872Z,5.25
2023-05-05T05:13:46.163Z,5.78
2023-05-05T05:16:13.816Z,6.38
2023-05-05T05:18:41.551Z,5.93
2023-05-05T05:21:10.203Z,7.32
2023-05-05T05:23:37.790Z,6.28
2023-05-05T05:26:06.560Z,7.13
2023-05-05T05:28:35.389Z,6.18
2023-05-05T05:31:03.328Z,7.25
2023-05-05T05:33:31.245Z,6.95
2023-05-05T05:35:59.967Z,6.07
2023-05-05T05:38:28.151Z,8.13
2023-05-05T05:40:58.932Z,8.90
2023-05-05T05:43:26.530Z,7.60
2023-05-05T05:45:54.233Z,6.00
2023-05-05T05:48:24.669Z,5.65
2023-05-05T05:50:53.243Z,6.20
2023-05-05T05:53:21.780Z,5.15
2023-05-05T05:55:50.470Z,4.95
2023-05-05T05:58:18.380Z,5.15
2023-05-05T06:00:46.625Z,4.32
2023-05-05T06:03:14.351Z,4.15
2023-05-05T06:05:42.344Z,4.50
2023-05-05T06:08:09.928Z,4.10
2023-05-05T06:10:42.709Z,3.75
2023-05-05T06:13:15.848Z,4.03
2023-05-05T06:15:46.784Z,4.03
2023-05-05T06:18:15.706Z,3.55
2023-05-05T06:20:43.512Z,3.88
2023-05-05T06:23:12.428Z,3.70
2023-05-05T06:28:11.808Z,3.55
2023-05-05T06:30:39.360Z,3.65
2023-05-05T06:33:06.920Z,4.25
2023-05-05T06:35:34.571Z,3.53
2023-05-05T06:38:02.172Z,3.65
2023-05-05T06:40:29.753Z,3.10
2023-05-05T06:42:57.325Z,3.63
2023-05-05T06:45:31.080Z,3.15
2023-05-05T06:47:58.748Z,2.97
2023-05-05T06:50:26.289Z,2.97
2023-05-05T06:52:53.884Z,3.10
2023-05-05T06:55:21.665Z,3.15
2023-05-05T06:57:49.171Z,3.22
2023-05-05T07:00:17.378Z,3.00
2023-05-05T07:02:44.962Z,3.17
2023-05-05T07:05:12.488Z,3.30
2023-05-05T07:07:41.755Z,3.10
2023-05-05T07:10:09.748Z,3.60
2023-05-05T07:12:37.555Z,2.92
2023-05-05T07:15:19.129Z,3.08
2023-05-05T07:17:53.591Z,3.53
2023-05-05T07:20:21.153Z,2.80
2023-05-05T07:22:48.682Z,3.30
2023-05-05T07:25:16.435Z,2.90
2023-05-05T07:27:44.001Z,3.13
2023-05-05T07:30:15.367Z,3.10
2023-05-05T07:32:45.122Z,3.05
2023-05-05T07:35:13.880Z,3.28
2023-05-05T07:37:41.467Z,3.15
2023-05-05T07:40:09.597Z,3.17
2023-05-05T07:42:37.436Z,3.55
2023-05-05T07:45:05.886Z,3.10
2023-05-05T07:47:33.630Z,3.45
2023-05-05T07:50:01.650Z,3.17
2023-05-05T07:52:44.093Z,3.03
2023-05-05T07:55:12.611Z,2.85
2023-05-05T07:57:40.447Z,2.80
2023-05-05T08:00:09.441Z,2.63
2023-05-05T08:02:41.145Z,3.00
2023-05-05T08:05:09.392Z,3.30
2023-05-05T08:07:40.961Z,2.72
2023-05-05T08:10:12.432Z,2.75
2023-05-05T08:12:40.445Z,2.80
2023-05-05T08:15:08.963Z,2.80
2023-05-05T08:17:50.686Z,3.10
2023-05-05T08:20:18.782Z,2.60
2023-05-05T08:22:46.586Z,2.60
2023-05-05T08:25:14.909Z,2.63
2023-05-05T08:27:43.291Z,2.60
2023-05-05T08:30:11.144Z,2.47
2023-05-05T08:32:38.895Z,2.50
2023-05-05T08:35:07.266Z,2.83
2023-05-05T08:37:35.210Z,2.35
2023-05-05T08:40:03.306Z,2.80
2023-05-05T08:42:38.059Z,2.72
2023-05-05T08:45:07.161Z,3.00
2023-05-05T08:47:36.704Z,2.92
2023-05-05T08:50:05.833Z,3.22
2023-05-05T08:52:39.307Z,3.42
2023-05-05T08:55:24.187Z,2.90
2023-05-05T08:57:52.667Z,2.67
2023-05-05T09:00:22.073Z,2.80
2023-05-05T09:02:50.256Z,3.10
2023-05-05T09:05:18.283Z,2.45
2023-05-05T09:07:47.089Z,3.30
2023-05-05T09:10:14.684Z,3.00
2023-05-05T09:12:42.388Z,2.42
2023-05-05T09:15:14.158Z,3.17
2023-05-05T09:17:42.345Z,3.13
2023-05-05T09:20:11.042Z,2.38
2023-05-05T09:22:42.533Z,2.42
2023-05-05T09:25:12.095Z,3.00
2023-05-05T09:27:41.128Z,3.15
2023-05-05T09:30:12.070Z,3.25
2023-05-05T09:32:53.206Z,2.33
2023-05-05T09:35:21.518Z,3.17
2023-05-05T09:37:49.099Z,3.08
2023-05-05T09:40:17.925Z,2.60
2023-05-05T09:42:45.661Z,3.03
2023-05-05T09:45:19.141Z,2.65
2023-05-05T09:47:47.365Z,2.50
2023-05-05T09:50:18.156Z,2.47
2023-05-05T09:52:55.987Z,2.83
2023-05-05T09:55:24.380Z,3.00
2023-05-05T09:57:52.193Z,2.85
2023-05-05T10:00:20.087Z,2.60
2023-05-05T10:02:48.376Z,2.35
2023-05-05T10:05:17.329Z,2.80
2023-05-05T10:07:46.051Z,2.60
2023-05-05T10:10:17.336Z,2.67
2023-05-05T10:12:47.618Z,2.50
2023-05-05T10:15:16.421Z,2.30
2023-05-05T10:18:05.265Z,2.58
2023-05-05T10:20:37.008Z,3.10
2023-05-05T10:23:07.114Z,2.95
2023-05-05T10:25:39.805Z,2.65
2023-05-05T10:28:10.570Z,2.95
2023-05-05T10:30:44.918Z,2.60
2023-05-05T10:33:30.020Z,2.28
2023-05-05T10:36:01.659Z,2.70
2023-05-05T10:38:33.582Z,3.00
2023-05-05T10:41:02.073Z,2.45
2023-05-05T10:43:32.744Z,2.83
2023-05-05T10:46:00.669Z,2.35
2023-05-05T10:48:38.525Z,2.50
2023-05-05T10:51:27.519Z,2.50
2023-05-05T10:54:25.598Z,2.53
2023-05-05T10:56:53.174Z,2.30
2023-05-05T10:59:39.110Z,2.42
2023-05-05T11:02:19.895Z,2.15
2023-05-05T11:05:06.746Z,2.25
2023-05-05T11:07:34.552Z,2.28
2023-05-05T11:10:02.938Z,3.22
2023-05-05T11:12:31.592Z,2.38
2023-05-05T11:15:18.131Z,2.92
2023-05-05T11:17:46.589Z,2.40
2023-05-05T11:20:14.340Z,2.33
2023-05-05T11:23:00.524Z,2.60
2023-05-05T11:25:37.776Z,2.50
2023-05-05T11:28:08.815Z,2.65
2023-05-05T11:30:57.233Z,3.33
2023-05-05T11:33:38.425Z,2.58
2023-05-05T11:36:16.718Z,2.50
2023-05-05T11:38:57.344Z,2.47
2023-05-05T11:41:33.880Z,2.20
2023-05-05T11:44:20.586Z,2.55
2023-05-05T11:46:51.319Z,2.63
2023-05-05T11:49:38.734Z,3.22
2023-05-05T11:52:07.373Z,2.83
2023-05-05T11:54:40.447Z,2.78
2023-05-05T11:57:08.963Z,2.33
2023-05-05T11:59:39.807Z,2.60
2023-05-05T12:02:07.387Z,2.58
2023-05-05T12:04:40.051Z,2.53
2023-05-05T12:07:07.683Z,2.80
2023-05-05T12:09:35.225Z,2.40
2023-05-05T12:12:02.844Z,2.25
2023-05-05T12:14:30.371Z,2.33
2023-05-05T12:17:05.768Z,2.72
2023-05-05T12:19:33.607Z,2.28
2023-05-05T12:22:01.611Z,2.47
2023-05-05T12:24:32.692Z,2.00
2023-05-05T12:27:08.110Z,2.53
2023-05-05T12:29:36.165Z,1.90
2023-05-05T12:32:04.401Z,2.20
2023-05-05T12:34:32.478Z,2.10
2023-05-05T12:37:00.247Z,2.00
2023-05-05T12:39:37.259Z,2.08
2023-05-05T12:42:05.361Z,2.03
2023-05-05T12:44:36.485Z,2.42
2023-05-05T12:47:04.737Z,2.40
2023-05-05T12:49:35.282Z,2.33
2023-05-05T12:52:03.622Z,2.35
2023-05-05T12:54:31.199Z,1.95
2023-05-05T12:56:59.228Z,2.13
2023-05-05T12:59:27.645Z,2.20
2023-05-05T13:01:56.486Z,2.10
2023-05-05T13:04:28.339Z,2.25
2023-05-05T13:07:12.934Z,2.35
2023-05-05T13:09:40.612Z,2.33
2023-05-05T13:12:10.991Z,2.30
2023-05-05T13:14:38.990Z,2.83
2023-05-05T13:17:06.681Z,2.60
2023-05-05T13:19:42.119Z,2.75
2023-05-05T13:22:10.114Z,2.50
2023-05-05T13:24:49.773Z,2.40
2023-05-05T13:27:18.906Z,2.60
2023-05-05T13:29:46.656Z,2.53
2023-05-05T13:32:14.240Z,2.45
2023-05-05T13:34:43.466Z,2.60
2023-05-05T13:37:11.066Z,2.78
2023-05-05T13:39:38.909Z,3.05
2023-05-05T13:42:06.802Z,2.78
2023-05-05T13:44:35.588Z,2.75
2023-05-05T13:47:03.555Z,2.28
2023-05-05T13:49:31.089Z,2.10
2023-05-05T13:51:59.115Z,2.33
2023-05-05T13:54:26.717Z,2.60
2023-05-05T13:56:54.545Z,2.30
2023-05-05T13:59:22.144Z,2.58
2023-05-05T14:01:49.788Z,2.50
2023-05-05T14:04:17.455Z,2.35
2023-05-05T14:06:45.071Z,2.60
2023-05-05T14:09:13.056Z,2.80
2023-05-05T14:11:41.025Z,2.50
2023-05-05T14:14:08.551Z,2.85
2023-05-05T14:16:36.271Z,2.58
2023-05-05T14:19:04.092Z,2.70
2023-05-05T14:21:32.564Z,2.40
2023-05-05T14:24:00.174Z,2.90
2023-05-05T14:26:27.956Z,2.55
2023-05-05T14:28:55.723Z,2.70
2023-05-05T14:31:23.360Z,2.88
2023-05-05T14:33:50.956Z,2.58
2023-05-05T14:36:18.518Z,3.10
2023-05-05T14:38:46.108Z,2.90
2023-05-05T14:41:13.707Z,3.00
2023-05-05T14:43:41.485Z,3.00
2023-05-05T14:46:09.045Z,2.90
2023-05-05T14:48:36.714Z,2.85
2023-05-05T14:51:04.659Z,2.60
2023-05-05T14:53:32.479Z,2.45
2023-05-05T14:56:02.140Z,2.90
2023-05-05T14:58:29.730Z,2.85
2023-05-05T15:00:57.304Z,2.55
2023-05-05T15:03:25.267Z,2.75
2023-05-05T15:05:53.117Z,2.50
2023-05-05T15:08:23.497Z,2.30
2023-05-05T15:10:51.045Z,2.63
2023-05-05T15:13:18.790Z,2.80
2023-05-05T15:15:46.928Z,2.88
2023-05-05T15:18:14.541Z,3.05
2023-05-05T15:20:42.179Z,2.60
2023-05-05T15:23:09.756Z,2.65
2023-05-05T15:25:37.425Z,3.30
2023-05-05T15:28:05.032Z,2.65
2023-05-05T15:30:32.692Z,3.17
2023-05-05T15:33:00.506Z,3.75
2023-05-05T15:35:28.079Z,4.88
2023-05-05T15:37:55.636Z,3.55
2023-05-05T15:40:23.373Z,4.32
2023-05-05T15:42:51.398Z,3.65
2023-05-05T15:45:19.202Z,3.95
2023-05-05T15:47:46.766Z,9.15
2023-05-05T15:50:14.454Z,3.42
2023-05-05T15:52:42.212Z,3.65
2023-05-05T15:55:10.423Z,4.35
2023-05-05T15:57:40.287Z,4.43
2023-05-05T16:00:09.221Z,4.70
2023-05-05T16:02:37.903Z,4.57
2023-05-05T16:05:05.905Z,4.20
2023-05-05T16:07:33.603Z,4.03
2023-05-05T16:10:01.297Z,4.35
2023-05-05T16:12:28.920Z,4.63
2023-05-05T16:14:56.656Z,4.95
2023-05-05T16:17:24.483Z,5.15
2023-05-05T16:19:52.024Z,4.53
2023-05-05T16:22:20.893Z,4.72
2023-05-05T16:24:48.463Z,4.68
2023-05-05T16:27:16.425Z,4.78
2023-05-05T16:29:43.970Z,4.65
2023-05-05T16:32:11.625Z,4.68
2023-05-05T16:34:39.199Z,4.80
2023-05-05T16:37:06.778Z,4.35
2023-05-05T16:39:39.874Z,4.90
2023-05-05T16:42:07.529Z,5.85
2023-05-05T16:44:35.316Z,5.15
2023-05-05T16:47:02.975Z,4.68
2023-05-05T16:49:30.676Z,4.63
2023-05-05T16:51:58.324Z,4.63
2023-05-05T16:54:25.996Z,5.20
2023-05-05T16:56:53.724Z,5.15
2023-05-05T16:59:21.319Z,5.63
2023-05-05T17:01:48.998Z,5.22
2023-05-05T17:04:16.896Z,4.93
2023-05-05T17:06:44.474Z,4.90
2023-05-05T17:09:12.407Z,5.10
2023-05-05T17:11:40.108Z,4.40
2023-05-05T17:14:07.923Z,4.63
2023-05-05T17:16:35.639Z,5.40
2023-05-05T17:19:03.513Z,5.03
2023-05-05T17:21:31.075Z,5.47
2023-05-05T17:23:58.851Z,4.90
2023-05-05T17:26:26.401Z,4.80
2023-05-05T17:28:53.965Z,4.30
2023-05-05T17:31:22.059Z,4.50
2023-05-05T17:33:50.011Z,4.50
2023-05-05T17:36:17.518Z,4.53
2023-05-05T17:38:45.032Z,4.28
2023-05-05T17:41:12.778Z,4.43
2023-05-05T17:43:40.893Z,4.00
2023-05-05T17:46:08.439Z,5.15
2023-05-05T17:48:36.157Z,3.88
2023-05-05T17:51:03.712Z,4.20
2023-05-05T17:53:31.489Z,4.18
2023-05-05T17:55:59.080Z,3.97
2023-05-05T17:58:26.628Z,4.05
2023-05-05T18:00:54.249Z,4.20
2023-05-05T18:03:21.880Z,4.30
2023-05-05T18:05:49.473Z,4.88
2023-05-05T18:08:17.360Z,4.03
2023-05-05T18:10:44.940Z,4.10
2023-05-05T18:13:12.524Z,4.28
2023-05-05T18:15:40.305Z,4.22
2023-05-05T18:18:07.879Z,4.00
2023-05-05T18:20:35.568Z,4.03
2023-05-05T18:23:03.382Z,4.10
2023-05-05T18:25:30.947Z,4.28
2023-05-05T18:27:58.758Z,4.22
2023-05-05T18:30:26.297Z,4.45
2023-05-05T18:32:54.069Z,4.28
2023-05-05T18:35:22.372Z,4.05
2023-05-05T18:37:49.993Z,4.25
2023-05-05T18:40:17.555Z,4.10
2023-05-05T18:42:45.139Z,3.92
2023-05-05T18:45:12.752Z,4.70
2023-05-05T18:47:41.324Z,4.90
2023-05-05T18:50:09.855Z,4.32
2023-05-05T18:52:37.495Z,4.47
2023-05-05T18:55:05.153Z,4.55
2023-05-05T18:57:32.910Z,2.22
2023-05-05T19:00:00.992Z,1.60
2023-05-05T19:02:28.593Z,2.25
2023-05-05T19:04:56.600Z,3.28
2023-05-05T19:07:34.270Z,2.00
2023-05-05T19:10:02.476Z,2.53
2023-05-05T19:12:30.146Z,2.47
2023-05-05T19:14:57.759Z,2.67
2023-05-05T19:17:25.419Z,3.08
2023-05-05T19:19:53.036Z,2.25
2023-05-05T19:22:22.912Z,2.30
2023-05-05T19:24:50.808Z,2.25
2023-05-05T19:27:18.386Z,2.35
2023-05-05T19:29:49.018Z,2.65
2023-05-05T19:32:16.812Z,2.50
2023-05-05T19:34:44.527Z,2.25
2023-05-05T19:37:12.700Z,2.33
2023-05-05T19:39:40.351Z,2.78
2023-05-05T19:42:07.914Z,2.90
2023-05-05T19:44:35.624Z,3.17
2023-05-05T19:47:03.348Z,2.78
2023-05-05T19:49:31.246Z,2.42
2023-05-05T19:51:58.890Z,2.65
2023-05-05T19:54:26.660Z,2.70
2023-05-05T19:56:55.264Z,2.97
2023-05-05T19:59:23.743Z,2.97
2023-05-05T20:01:51.482Z,2.10
2023-05-05T20:04:19.296Z,2.53
2023-05-05T20:06:46.848Z,2.30
2023-05-05T20:09:14.813Z,2.35
2023-05-05T20:11:42.440Z,2.28
2023-05-05T20:14:10.037Z,2.60
2023-05-05T20:16:37.669Z,2.65
2023-05-05T20:19:05.418Z,2.45
2023-05-05T20:21:34.734Z,2.45
2023-05-05T20:24:02.555Z,2.92
2023-05-05T20:26:30.262Z,2.65
2023-05-05T20:28:57.795Z,2.30
2023-05-05T20:31:25.370Z,2.50
2023-05-05T20:33:52.927Z,2.00
2023-05-05T20:36:20.615Z,1.95
2023-05-05T20:38:48.160Z,2.15
2023-05-05T20:41:15.960Z,2.20
2023-05-05T20:43:43.533Z,2.38
2023-05-05T20:46:13.024Z,2.13
2023-05-05T20:48:42.937Z,1.85
2023-05-05T20:51:11.123Z,1.98
2023-05-05T20:53:38.686Z,2.05
2023-05-05T20:56:08.817Z,2.22
2023-05-05T20:58:36.858Z,2.40
2023-05-05T21:01:04.418Z,1.73
2023-05-05T21:03:32.055Z,2.10
2023-05-05T21:05:59.647Z,2.20
2023-05-05T21:08:27.179Z,2.35
2023-05-05T21:10:54.711Z,2.13
2023-05-05T21:13:22.951Z,2.22
2023-05-05T21:15:50.785Z,2.17
2023-05-05T21:18:18.330Z,2.22
2023-05-05T21:20:45.892Z,2.10
2023-05-05T21:23:13.418Z,2.20
2023-05-05T21:25:41.022Z,2.50
2023-05-05T21:28:08.549Z,2.45
2023-05-05T21:30:36.122Z,2.15
2023-05-05T21:33:03.683Z,2.33
2023-05-05T21:35:31.324Z,2.50
2023-05-05T21:37:58.961Z,2.05
2023-05-05T21:40:26.663Z,2.05
2023-05-05T21:42:54.174Z,2.65
2023-05-05T21:45:21.748Z,2.65
2023-05-05T21:47:49.325Z,2.67
2023-05-05T21:50:16.898Z,2.60
2023-05-05T21:52:44.444Z,2.53
2023-05-05T21:55:11.943Z,2.90
2023-05-05T21:57:39.463Z,2.47
2023-05-05T22:00:08.732Z,2.70
2023-05-05T22:02:39.963Z,2.47
2023-05-05T22:05:07.986Z,2.28
2023-05-05T22:07:35.866Z,2.30
2023-05-05T22:10:03.716Z,2.15
2023-05-05T22:12:31.262Z,2.13
2023-05-05T22:14:58.858Z,2.08
2023-05-05T22:17:26.645Z,2.25
2023-05-05T22:19:54.239Z,2.33
2023-05-05T22:22:21.904Z,2.20
2023-05-05T22:24:49.563Z,2.13
2023-05-05T22:27:17.386Z,2.28
2023-05-05T22:29:44.969Z,2.40
2023-05-05T22:32:12.652Z,2.35
2023-05-05T22:34:40.300Z,2.65
2023-05-05T22:37:07.863Z,2.60
2023-05-05T22:39:35.434Z,2.60
2023-05-05T22:42:03.699Z,2.42
2023-05-05T22:44:31.246Z,2.53
2023-05-05T22:46:58.848Z,2.50
2023-05-05T22:49:26.563Z,2.60
2023-05-05T22:51:54.165Z,3.05
2023-05-05T22:54:21.743Z,2.83
2023-05-05T22:56:49.811Z,2.83
2023-05-05T22:59:17.331Z,2.80
2023-05-05T23:01:45.088Z,2.58
2023-05-05T23:04:12.739Z,3.00
2023-05-05T23:06:41.300Z,2.78
2023-05-05T23:09:09.303Z,2.90
2023-05-05T23:11:36.826Z,2.70
2023-05-05T23:14:04.433Z,3.42
2023-05-05T23:16:32.011Z,2.83
2023-05-05T23:18:59.752Z,3.03
2023-05-05T23:21:28.371Z,3.33
2023-05-05T23:23:56.920Z,3.25
2023-05-05T23:26:24.581Z,2.83
2023-05-05T23:28:52.153Z,3.30
2023-05-05T23:31:19.763Z,3.33
2023-05-05T23:33:47.589Z,3.20
2023-05-05T23:36:15.408Z,3.55
2023-05-05T23:38:42.972Z,3.08
2023-05-05T23:41:10.784Z,3.03
2023-05-05T23:43:38.304Z,3.22
2023-05-05T23:46:06.234Z,3.28
2023-05-05T23:48:33.815Z,3.60
2023-05-05T23:51:01.325Z,3.30
2023-05-05T23:53:28.945Z,3.10
2023-05-05T23:55:56.851Z,3.30
2023-05-05T23:58:24.486Z,3.42
